Time;durP1;ratioP1;P1;durP2;ratioP2;P2;SDS_P1;SDS_P2;PMS_P1;PMS_P2;Temp;Humidity;BMP_temperature;BMP_pressure;BME280_temperature;BME280_humidity;BME280_pressure;Samples;Min_cycle;Max_cycle;Signal;HPM_P1;HPM_P2
2020/12/12 00:00:27;;;;;;;282.63;154.50;;;17.20;61.90;;;;;;5016763;28;20037;-56
2020/12/12 00:02:52;;;;;;;272.85;154.73;;;17.10;62.00;;;;;;5016618;28;20076;-57
2020/12/12 00:05:18;;;;;;;258.85;151.07;;;17.10;61.80;;;;;;5016908;28;20030;-56
2020/12/12 00:07:43;;;;;;;274.10;151.63;;;17.00;62.10;;;;;;5016354;28;20029;-58
2020/12/12 00:10:09;;;;;;;251.18;145.32;;;17.00;62.10;;;;;;5025234;28;20030;-58
2020/12/12 00:12:35;;;;;;;258.50;151.55;;;17.00;62.10;;;;;;5006113;28;20042;-58
2020/12/12 00:15:05;;;;;;;255.93;148.10;;;16.90;62.00;;;;;;5021506;28;20040;-58
2020/12/12 00:17:30;;;;;;;247.77;140.35;;;17.00;62.10;;;;;;5021523;28;20088;-59
2020/12/12 00:19:56;;;;;;;246.43;143.05;;;16.90;62.00;;;;;;5026550;28;20025;-58
2020/12/12 00:22:22;;;;;;;249.93;143.80;;;16.90;62.20;;;;;;5023670;28;20034;-58
2020/12/12 00:24:47;;;;;;;256.30;142.30;;;16.80;62.30;;;;;;5016411;28;20430;-57
2020/12/12 00:27:13;;;;;;;249.55;137.48;;;16.80;62.10;;;;;;5016670;28;20077;-58
2020/12/12 00:29:39;;;;;;;259.60;140.85;;;16.90;62.00;;;;;;5016845;28;20030;-57
2020/12/12 00:32:04;;;;;;;241.55;133.25;;;16.90;61.90;;;;;;5016377;28;20030;-58
2020/12/12 00:34:30;;;;;;;239.73;132.32;;;16.90;61.60;;;;;;5016154;28;20042;-58
2020/12/12 00:36:57;;;;;;;233.18;133.05;;;17.00;61.90;;;;;;5016168;28;20026;-57
2020/12/12 00:39:22;;;;;;;235.27;133.40;;;17.00;61.50;;;;;;5016642;28;20034;-56
2020/12/12 00:41:49;;;;;;;233.52;133.05;;;17.00;61.60;;;;;;5016536;28;20037;-56
2020/12/12 00:44:15;;;;;;;239.50;129.32;;;17.10;62.30;;;;;;5015863;28;20113;-55
2020/12/12 00:46:42;;;;;;;221.15;125.93;;;17.10;63.10;;;;;;5015879;28;20108;-55
2020/12/12 00:49:08;;;;;;;223.07;129.35;;;17.10;63.70;;;;;;5016097;28;20026;-57
2020/12/12 00:51:34;;;;;;;216.07;123.38;;;17.10;65.00;;;;;;5014936;28;20472;-57
2020/12/12 00:54:00;;;;;;;206.43;118.28;;;17.00;67.00;;;;;;5015950;28;20096;-58
2020/12/12 00:56:26;;;;;;;210.35;116.45;;;17.00;66.40;;;;;;5016147;28;20458;-57
2020/12/12 00:58:52;;;;;;;215.68;119.40;;;16.90;67.10;;;;;;5016020;28;20041;-58
2020/12/12 01:01:18;;;;;;;211.52;116.85;;;16.90;66.70;;;;;;5013211;28;20041;-59
2020/12/12 01:03:44;;;;;;;209.45;115.03;;;16.90;66.40;;;;;;5015727;28;20156;-59
2020/12/12 01:06:11;;;;;;;193.35;111.97;;;16.90;66.40;;;;;;5015324;28;20371;-59
2020/12/12 01:08:37;;;;;;;197.13;113.47;;;16.80;66.40;;;;;;5015672;28;20030;-59
2020/12/12 01:11:04;;;;;;;190.27;108.45;;;16.80;66.40;;;;;;5015551;28;20377;-59
2020/12/12 01:13:30;;;;;;;189.60;109.38;;;16.70;66.30;;;;;;5015652;28;20069;-59
2020/12/12 01:15:56;;;;;;;197.38;107.85;;;16.70;66.00;;;;;;5015523;28;20486;-59
2020/12/12 01:18:21;;;;;;;193.50;109.43;;;16.70;65.40;;;;;;5015628;28;20117;-59
2020/12/12 01:20:47;;;;;;;186.25;104.82;;;16.80;65.10;;;;;;5015477;28;20030;-59
2020/12/12 01:23:12;;;;;;;185.60;104.35;;;16.90;64.70;;;;;;5015481;28;20057;-59
2020/12/12 01:25:39;;;;;;;182.40;104.82;;;17.00;64.10;;;;;;5015403;28;20489;-59
2020/12/12 01:28:05;;;;;;;174.05;101.38;;;17.10;63.90;;;;;;5015317;28;20101;-59
2020/12/12 01:30:31;;;;;;;186.75;102.55;;;17.10;63.70;;;;;;5015289;28;20489;-59
2020/12/12 01:32:57;;;;;;;169.40;97.78;;;17.10;64.30;;;;;;5014941;28;20462;-59
2020/12/12 01:35:23;;;;;;;180.32;95.80;;;17.20;63.70;;;;;;5015168;28;20034;-58
2020/12/12 01:37:48;;;;;;;163.63;95.25;;;17.40;63.30;;;;;;5015217;28;20109;-59
2020/12/12 01:40:14;;;;;;;165.43;92.03;;;17.50;62.70;;;;;;5015109;28;20474;-59
2020/12/12 01:42:40;;;;;;;165.95;93.30;;;17.80;62.10;;;;;;5015211;28;20033;-59
2020/12/12 01:45:07;;;;;;;163.90;91.68;;;17.90;61.50;;;;;;5014926;28;20167;-59
2020/12/12 01:47:33;;;;;;;158.60;88.97;;;17.90;61.60;;;;;;5014757;28;20033;-59
2020/12/12 01:49:59;;;;;;;154.88;87.75;;;17.80;61.80;;;;;;5015027;28;20034;-59
2020/12/12 01:52:25;;;;;;;160.57;89.35;;;17.70;62.20;;;;;;5015056;28;20065;-59
2020/12/12 01:54:51;;;;;;;148.48;85.60;;;17.60;62.40;;;;;;5015016;28;20596;-59
2020/12/12 01:57:22;;;;;;;154.27;88.25;;;17.60;62.40;;;;;;5014678;28;20101;-59
2020/12/12 01:59:48;;;;;;;;;;;17.60;62.20;;;;;;5015229;28;20036;-59
2020/12/12 02:02:16;;;;;;;141.70;79.60;;;17.60;62.20;;;;;;5014398;28;20353;-59
2020/12/12 02:04:48;;;;;;;146.38;80.82;;;17.70;62.10;;;;;;5014422;28;20074;-59
2020/12/12 02:07:16;;;;;;;140.65;81.07;;;17.60;62.10;;;;;;5014682;28;20033;-59
2020/12/12 02:09:43;;;;;;;141.88;81.35;;;17.60;62.20;;;;;;5014275;28;20034;-59
2020/12/12 02:12:09;;;;;;;145.25;79.57;;;17.60;62.00;;;;;;5014270;28;20034;-59
2020/12/12 02:14:38;;;;;;;141.18;81.47;;;17.70;62.00;;;;;;5014301;28;20473;-59
2020/12/12 02:17:05;;;;;;;147.30;82.35;;;17.60;62.10;;;;;;5014140;28;20125;-59
2020/12/12 02:19:30;;;;;;;132.80;76.55;;;17.60;62.10;;;;;;5014277;28;20061;-59
2020/12/12 02:21:57;;;;;;;131.88;74.72;;;17.60;62.10;;;;;;5014244;28;20065;-59
2020/12/12 02:24:24;;;;;;;135.65;76.90;;;17.60;62.10;;;;;;5014411;28;20536;-59
2020/12/12 02:26:51;;;;;;;126.65;72.65;;;17.60;62.00;;;;;;5014425;28;20052;-59
2020/12/12 02:29:17;;;;;;;132.10;74.35;;;17.50;62.10;;;;;;5014311;28;20065;-59
2020/12/12 02:31:44;;;;;;;130.18;73.18;;;17.50;62.00;;;;;;5014395;28;20033;-59
2020/12/12 02:34:10;;;;;;;128.40;73.10;;;17.50;62.00;;;;;;5014034;28;20127;-59
2020/12/12 02:36:37;;;;;;;121.60;70.57;;;17.50;62.00;;;;;;5014137;28;20069;-59
2020/12/12 02:39:04;;;;;;;117.10;69.10;;;17.50;62.10;;;;;;5013587;28;20033;-60
2020/12/12 02:41:30;;;;;;;118.38;68.32;;;17.60;62.10;;;;;;5014485;28;20034;-59
2020/12/12 02:43:56;;;;;;;113.80;66.72;;;17.60;61.60;;;;;;5014014;28;20030;-59
2020/12/12 02:46:21;;;;;;;114.80;64.70;;;17.60;61.50;;;;;;5013885;28;20471;-59
2020/12/12 02:48:48;;;;;;;113.60;66.20;;;17.60;61.30;;;;;;5014053;28;20066;-59
2020/12/12 02:51:15;;;;;;;117.25;65.85;;;17.60;61.20;;;;;;5013839;28;20108;-59
2020/12/12 02:53:43;;;;;;;110.25;62.92;;;17.60;61.50;;;;;;5013769;28;20030;-59
2020/12/12 02:56:09;;;;;;;119.28;64.57;;;17.50;61.50;;;;;;5014136;28;20032;-59
2020/12/12 02:58:34;;;;;;;117.90;63.65;;;17.50;61.60;;;;;;5013957;28;20037;-59
2020/12/12 03:01:00;;;;;;;107.97;61.97;;;17.40;61.80;;;;;;5013921;28;20034;-59
2020/12/12 03:03:25;;;;;;;110.15;62.53;;;17.30;62.00;;;;;;5013833;28;20112;-59
2020/12/12 03:05:51;;;;;;;105.35;59.78;;;17.30;62.10;;;;;;5014216;28;20033;-59
2020/12/12 03:08:17;;;;;;;110.43;61.28;;;17.20;62.10;;;;;;5013956;28;20030;-59
2020/12/12 03:10:42;;;;;;;110.35;59.35;;;17.10;61.30;;;;;;5013814;28;20373;-59
2020/12/12 03:13:08;;;;;;;103.97;58.10;;;17.20;62.20;;;;;;5014164;28;20549;-59
2020/12/12 03:15:33;;;;;;;96.47;54.55;;;17.20;62.20;;;;;;5013818;28;20508;-59
2020/12/12 03:17:59;;;;;;;105.60;57.67;;;17.10;62.10;;;;;;5013554;28;20057;-59
2020/12/12 03:20:25;;;;;;;95.55;55.00;;;17.10;62.30;;;;;;5013631;28;20095;-59
2020/12/12 03:22:50;;;;;;;86.55;53.45;;;17.00;62.40;;;;;;5013566;28;20057;-59
2020/12/12 03:25:16;;;;;;;94.72;53.67;;;17.00;62.40;;;;;;5013678;28;20026;-59
2020/12/12 03:27:41;;;;;;;103.88;56.95;;;17.00;62.50;;;;;;5013772;28;20025;-59
2020/12/12 03:30:07;;;;;;;95.53;54.05;;;16.90;62.50;;;;;;5013455;28;20022;-59
2020/12/12 03:32:33;;;;;;;94.60;52.30;;;16.90;62.60;;;;;;5013633;28;20026;-59
2020/12/12 03:34:58;;;;;;;86.32;53.35;;;16.90;62.70;;;;;;5013485;28;20478;-59
2020/12/12 03:37:24;;;;;;;98.20;53.40;;;16.90;62.80;;;;;;5013337;28;20041;-59
2020/12/12 03:39:50;;;;;;;90.18;49.63;;;16.90;62.90;;;;;;5013550;28;20088;-59
2020/12/12 03:42:16;;;;;;;86.53;49.67;;;16.90;62.70;;;;;;5013310;28;20033;-59
2020/12/12 03:44:41;;;;;;;82.15;47.67;;;17.00;62.60;;;;;;5013386;28;20026;-59
2020/12/12 03:47:07;;;;;;;88.00;49.95;;;16.90;62.50;;;;;;5013460;28;20021;-59
2020/12/12 03:49:33;;;;;;;87.07;49.45;;;17.00;62.60;;;;;;5013405;28;20057;-59
2020/12/12 03:51:59;;;;;;;80.10;46.83;;;17.30;61.70;;;;;;5015668;28;20444;-59
2020/12/12 03:54:26;;;;;;;86.80;48.03;;;17.40;61.00;;;;;;5017139;28;20116;-59
2020/12/12 03:56:52;;;;;;;81.50;44.92;;;17.60;60.60;;;;;;5017196;28;20065;-59
2020/12/12 03:59:18;;;;;;;75.43;45.63;;;17.70;60.40;;;;;;5017049;28;20054;-59
2020/12/12 04:01:43;;;;;;;78.70;45.70;;;17.70;60.20;;;;;;5016724;28;20029;-59
2020/12/12 04:04:09;;;;;;;76.35;44.75;;;17.70;60.30;;;;;;5017069;28;20458;-59
2020/12/12 04:06:35;;;;;;;79.93;45.33;;;17.70;60.40;;;;;;5016733;28;20026;-59
2020/12/12 04:09:00;;;;;;;74.07;42.35;;;17.70;60.20;;;;;;5016849;28;20065;-59
2020/12/12 04:11:26;;;;;;;76.43;42.55;;;17.70;60.10;;;;;;5016601;28;20525;-59
2020/12/12 04:13:52;;;;;;;80.80;43.85;;;17.70;60.10;;;;;;5016985;28;20165;-59
2020/12/12 04:16:18;;;;;;;79.68;42.75;;;17.70;59.90;;;;;;5016370;28;20037;-60
2020/12/12 04:18:43;;;;;;;73.85;43.90;;;17.70;60.00;;;;;;5016852;28;20026;-59
2020/12/12 04:21:09;;;;;;;69.28;38.13;;;17.70;60.00;;;;;;5016889;28;20128;-59
2020/12/12 04:23:36;;;;;;;66.22;39.10;;;17.70;60.10;;;;;;5016677;28;20458;-59
2020/12/12 04:26:03;;;;;;;72.28;39.10;;;17.70;60.20;;;;;;5016685;28;20355;-59
2020/12/12 04:28:29;;;;;;;73.55;38.90;;;17.70;60.00;;;;;;5016437;28;20038;-58
2020/12/12 04:30:55;;;;;;;65.88;36.17;;;17.70;60.00;;;;;;5016382;28;20030;-59
2020/12/12 04:33:21;;;;;;;68.88;39.10;;;17.70;59.90;;;;;;5016162;28;20041;-58
2020/12/12 04:35:46;;;;;;;65.72;34.95;;;17.60;60.10;;;;;;5016032;28;20051;-59
2020/12/12 04:38:12;;;;;;;64.57;37.85;;;17.60;60.20;;;;;;5016451;28;20022;-58
2020/12/12 04:40:37;;;;;;;70.60;39.97;;;17.60;60.20;;;;;;5016249;28;20030;-58
2020/12/12 04:43:03;;;;;;;64.55;36.72;;;17.60;60.20;;;;;;5016482;28;20057;-59
2020/12/12 04:45:32;;;;;;;65.68;37.63;;;17.60;60.20;;;;;;5016053;28;20033;-59
2020/12/12 04:47:57;;;;;;;62.03;34.90;;;17.60;60.20;;;;;;5015923;28;20026;-59
2020/12/12 04:50:28;;;;;;;58.70;33.50;;;17.50;60.20;;;;;;5016650;28;20080;-59
2020/12/12 04:53:10;;;;;;;58.97;33.22;;;17.50;60.20;;;;;;5016051;28;20034;-58
2020/12/12 04:55:41;;;;;;;55.10;32.40;;;17.50;60.30;;;;;;5016020;28;20038;-59
2020/12/12 04:58:08;;;;;;;60.80;33.03;;;17.50;60.40;;;;;;5015884;28;20029;-59
2020/12/12 05:00:34;;;;;;;56.97;32.10;;;16.00;58.50;;;;;;5015730;28;20109;-59
2020/12/12 05:02:59;;;;;;;56.38;32.58;;;17.60;59.80;;;;;;5015558;28;20061;-58
2020/12/12 05:05:25;;;;;;;55.17;30.50;;;17.70;59.80;;;;;;5015678;28;20489;-59
2020/12/12 05:07:50;;;;;;;56.50;32.42;;;17.70;59.70;;;;;;5015682;28;20105;-59
2020/12/12 05:10:16;;;;;;;52.08;31.02;;;17.70;60.20;;;;;;5015581;28;20033;-59
2020/12/12 05:12:42;;;;;;;52.33;30.60;;;17.50;60.00;;;;;;5015648;28;20120;-58
2020/12/12 05:15:08;;;;;;;54.67;30.88;;;17.60;60.10;;;;;;5015588;28;20034;-59
2020/12/12 05:17:33;;;;;;;49.90;30.30;;;17.60;60.10;;;;;;5015570;28;20454;-58
2020/12/12 05:19:59;;;;;;;48.55;29.83;;;17.70;60.00;;;;;;5015244;28;20033;-59
2020/12/12 05:22:25;;;;;;;49.15;29.83;;;17.70;59.90;;;;;;5015462;28;20157;-58
2020/12/12 05:24:53;;;;;;;49.67;27.63;;;17.80;59.70;;;;;;5015329;28;20061;-58
2020/12/12 05:27:19;;;;;;;48.00;27.27;;;17.90;59.20;;;;;;5015404;28;20032;-58
2020/12/12 05:29:45;;;;;;;48.03;28.13;;;18.00;58.90;;;;;;5015251;28;20104;-58
2020/12/12 05:32:12;;;;;;;53.05;29.52;;;18.10;58.60;;;;;;5015011;28;20030;-59
2020/12/12 05:34:38;;;;;;;48.13;27.20;;;18.30;58.20;;;;;;5015396;28;20034;-59
2020/12/12 05:37:04;;;;;;;44.42;27.10;;;18.50;57.90;;;;;;5015328;28;20083;-59
2020/12/12 05:39:29;;;;;;;46.03;26.88;;;18.50;57.60;;;;;;5015077;28;20027;-59
2020/12/12 05:41:55;;;;;;;45.25;25.98;;;18.60;57.60;;;;;;5015181;28;20544;-59
2020/12/12 05:44:20;;;;;;;45.67;27.02;;;18.70;57.30;;;;;;5015007;28;20026;-59
2020/12/12 05:46:47;;;;;;;39.00;23.50;;;18.80;57.10;;;;;;5014893;28;20033;-59
2020/12/12 05:49:13;;;;;;;45.47;25.55;;;18.80;57.00;;;;;;5015071;28;20474;-58
2020/12/12 05:51:40;;;;;;;42.92;25.38;;;18.90;56.80;;;;;;5014703;28;20037;-58
2020/12/12 05:54:06;;;;;;;46.50;26.42;;;19.00;56.60;;;;;;4997171;28;20041;-59
2020/12/12 05:56:31;;;;;;;45.67;25.83;;;19.10;56.50;;;;;;5014741;28;20053;-59
2020/12/12 05:58:58;;;;;;;43.78;25.35;;;19.10;56.40;;;;;;5014499;28;20065;-59
2020/12/12 06:01:26;;;;;;;41.28;23.10;;;19.10;56.30;;;;;;5014703;28;20025;-59
2020/12/12 06:03:56;;;;;;;38.95;23.17;;;19.20;56.30;;;;;;5014595;28;20034;-59
2020/12/12 06:06:24;;;;;;;43.53;25.33;;;19.20;56.20;;;;;;5014915;28;20037;-58
2020/12/12 06:09:03;;;;;;;39.15;23.20;;;19.40;56.10;;;;;;5014569;28;20363;-59
2020/12/12 06:11:30;;;;;;;39.30;23.70;;;19.30;56.10;;;;;;5014500;28;20385;-59
2020/12/12 06:13:58;;;;;;;44.95;24.38;;;19.40;56.10;;;;;;5013954;28;20045;-59
2020/12/12 06:16:26;;;;;;;40.72;23.80;;;19.40;56.00;;;;;;5014608;28;20041;-59
2020/12/12 06:19:12;;;;;;;37.35;21.90;;;19.50;55.80;;;;;;5014703;28;20110;-59
2020/12/12 06:21:49;;;;;;;38.05;21.80;;;19.40;55.90;;;;;;5014239;28;20029;-59
2020/12/12 06:24:17;;;;;;;32.75;19.58;;;19.30;56.00;;;;;;5014433;28;20084;-59
2020/12/12 06:27:03;;;;;;;38.67;22.60;;;19.30;56.00;;;;;;5014394;28;20386;-59
2020/12/12 06:29:32;;;;;;;32.70;20.30;;;19.20;56.10;;;;;;5014329;28;20113;-59
2020/12/12 06:31:58;;;;;;;34.17;19.95;;;19.10;56.40;;;;;;5014205;28;20461;-60
2020/12/12 06:34:43;;;;;;;35.78;20.23;;;19.20;56.40;;;;;;5014674;28;20034;-59
2020/12/12 06:37:24;;;;;;;33.42;20.80;;;19.10;56.50;;;;;;5014188;28;20358;-58
2020/12/12 06:39:50;;;;;;;33.58;18.98;;;19.10;56.60;;;;;;5014383;28;20049;-59
2020/12/12 06:42:37;;;;;;;29.90;17.38;;;19.00;56.70;;;;;;5014178;28;20470;-59
2020/12/12 06:45:13;;;;;;;33.08;20.13;;;19.00;56.80;;;;;;5001202;28;20049;-59
2020/12/12 06:47:44;;;;;;;31.10;18.63;;;18.90;56.90;;;;;;5014213;28;20030;-59
2020/12/12 06:50:24;;;;;;;32.00;17.60;;;18.80;57.00;;;;;;5014121;28;20048;-59
2020/12/12 06:52:51;;;;;;;28.60;17.27;;;18.80;57.10;;;;;;5013993;28;20034;-59
2020/12/12 06:55:18;;;;;;;31.42;18.48;;;18.80;57.10;;;;;;5014274;28;20034;-59
2020/12/12 06:57:46;;;;;;;27.13;15.75;;;18.70;57.20;;;;;;5013900;28;20054;-59
2020/12/12 07:00:27;;;;;;;28.80;16.58;;;18.60;57.30;;;;;;5013911;28;20084;-59
2020/12/12 07:02:55;;;;;;;25.40;15.95;;;18.60;57.40;;;;;;5013900;28;20026;-59
2020/12/12 07:05:22;;;;;;;27.85;16.77;;;18.60;57.40;;;;;;5013805;28;20105;-59
2020/12/12 07:07:48;;;;;;;27.50;16.02;;;18.50;57.80;;;;;;5014215;28;20033;-59
2020/12/12 07:10:14;;;;;;;28.83;16.67;;;18.40;58.20;;;;;;5013698;28;20034;-59
2020/12/12 07:12:40;;;;;;;29.45;16.65;;;18.50;58.00;;;;;;5014004;28;20038;-59
2020/12/12 07:15:06;;;;;;;25.55;16.13;;;18.60;57.90;;;;;;5013752;28;20041;-59
2020/12/12 07:17:32;;;;;;;24.63;14.38;;;18.70;57.70;;;;;;5013502;28;20046;-59
2020/12/12 07:19:59;;;;;;;24.10;15.38;;;18.60;57.70;;;;;;5013562;28;20034;-60
2020/12/12 07:22:27;;;;;;;25.13;14.77;;;18.50;58.00;;;;;;5013956;28;20030;-59
2020/12/12 07:24:53;;;;;;;27.80;15.48;;;18.40;58.10;;;;;;5014005;28;20501;-58
2020/12/12 07:27:19;;;;;;;24.88;15.57;;;18.50;57.80;;;;;;5017732;28;20029;-59
2020/12/12 07:29:44;;;;;;;24.00;15.13;;;18.60;57.40;;;;;;5017683;28;20029;-59
2020/12/12 07:32:10;;;;;;;27.77;15.40;;;18.80;57.10;;;;;;5017536;28;20382;-59
2020/12/12 07:34:36;;;;;;;25.65;13.98;;;18.80;56.90;;;;;;5017159;28;20037;-59
2020/12/12 07:37:06;;;;;;;24.98;14.07;;;18.80;56.70;;;;;;5017374;28;20061;-59
2020/12/12 07:39:34;;;;;;;21.52;13.55;;;18.90;56.70;;;;;;5017786;28;20030;-59
2020/12/12 07:42:02;;;;;;;20.45;12.93;;;19.00;56.60;;;;;;4999693;28;20041;-58
2020/12/12 07:44:31;;;;;;;23.13;13.57;;;19.00;56.40;;;;;;5017309;28;20037;-59
2020/12/12 07:46:58;;;;;;;22.95;13.55;;;19.10;56.10;;;;;;5017028;28;20100;-59
2020/12/12 07:49:24;;;;;;;23.00;13.73;;;19.10;56.20;;;;;;5017337;28;20026;-59
2020/12/12 07:51:58;;;;;;;23.83;13.02;;;19.20;56.20;;;;;;5017227;28;20415;-59
2020/12/12 07:54:34;;;;;;;22.75;14.27;;;19.10;56.30;;;;;;5017305;28;20064;-59
2020/12/12 07:57:01;;;;;;;21.55;12.75;;;19.10;56.40;;;;;;5017045;28;20478;-59
2020/12/12 07:59:27;;;;;;;22.13;14.13;;;19.00;56.40;;;;;;5016864;28;20503;-59
2020/12/12 08:01:52;;;;;;;22.52;12.93;;;19.00;56.50;;;;;;5017121;28;20073;-59
2020/12/12 08:04:22;;;;;;;20.10;12.43;;;19.00;56.50;;;;;;5017101;28;20037;-58
2020/12/12 08:06:49;;;;;;;22.63;13.00;;;18.90;56.70;;;;;;5016883;28;20119;-60
2020/12/12 08:09:23;;;;;;;22.55;13.35;;;18.80;57.80;;;;;;5016733;28;20029;-57
2020/12/12 08:11:59;;;;;;;22.02;12.63;;;18.90;58.20;;;;;;5016601;28;20041;-57
2020/12/12 08:14:28;;;;;;;21.45;11.70;;;18.90;59.00;;;;;;5016627;28;20030;-56
2020/12/12 08:17:03;;;;;;;24.73;11.70;;;18.90;58.70;;;;;;4999202;28;20406;-56
2020/12/12 08:19:29;;;;;;;22.23;12.43;;;18.90;58.60;;;;;;5016927;28;20461;-55
2020/12/12 08:22:17;;;;;;;18.67;11.27;;;18.80;59.10;;;;;;5016499;28;20022;-54
2020/12/12 08:24:44;;;;;;;25.20;12.65;;;18.80;59.00;;;;;;5016288;28;20454;-58
2020/12/12 08:27:22;;;;;;;26.88;11.95;;;18.80;58.20;;;;;;5016511;28;20034;-55
2020/12/12 08:29:53;;;;;;;21.83;11.75;;;18.70;58.30;;;;;;5016524;28;20466;-54
2020/12/12 08:32:42;;;;;;;28.23;16.50;;;18.60;58.50;;;;;;5016370;28;20034;-51
2020/12/12 08:35:21;;;;;;;56.80;30.95;;;18.50;57.70;;;;;;5016479;28;20038;-51
2020/12/12 08:38:00;;;;;;;68.40;39.00;;;18.40;57.10;;;;;;5013744;28;20029;-55
2020/12/12 08:40:45;;;;;;;103.65;55.55;;;18.30;56.60;;;;;;4998624;28;20027;-57
2020/12/12 08:43:13;;;;;;;112.28;59.60;;;18.30;56.50;;;;;;5005672;28;20041;-54
2020/12/12 08:45:40;;;;;;;116.72;59.80;;;18.20;56.30;;;;;;5019660;28;20473;-58
2020/12/12 08:48:12;;;;;;;112.13;61.15;;;18.10;56.00;;;;;;5022210;28;20037;-58
2020/12/12 08:50:57;;;;;;;92.47;53.30;;;18.00;56.00;;;;;;5016084;28;20026;-57
2020/12/12 08:53:31;;;;;;;88.13;49.33;;;18.00;54.80;;;;;;5016053;28;20545;-58
2020/12/12 08:56:24;;;;;;;74.13;40.78;;;17.90;54.80;;;;;;5015985;28;20036;-56
2020/12/12 08:59:00;;;;;;;60.88;33.50;;;17.90;54.00;;;;;;5012295;28;20383;-57
2020/12/12 09:01:28;;;;;;;48.95;29.83;;;17.90;53.30;;;;;;5014823;28;20034;-51
2020/12/12 09:03:55;;;;;;;48.03;26.10;;;17.80;53.50;;;;;;5014298;28;20018;-59
2020/12/12 09:06:22;;;;;;;32.78;20.85;;;17.80;53.20;;;;;;5013117;28;20026;-58
2020/12/12 09:08:48;;;;;;;38.00;21.48;;;17.80;52.40;;;;;;5014441;28;20033;-60
2020/12/12 09:11:15;;;;;;;35.55;18.35;;;17.80;52.00;;;;;;5013645;28;20026;-59
2020/12/12 09:13:41;;;;;;;34.67;18.60;;;17.80;51.90;;;;;;5014393;28;20037;-60
2020/12/12 09:16:10;;;;;;;38.35;19.05;;;17.90;52.30;;;;;;5014592;28;20037;-58
2020/12/12 09:18:47;;;;;;;26.23;16.20;;;17.90;52.30;;;;;;5014442;28;20528;-59
2020/12/12 09:21:13;;;;;;;26.73;15.30;;;18.00;52.50;;;;;;5015393;28;20034;-58
2020/12/12 09:23:40;;;;;;;30.80;15.02;;;18.10;52.60;;;;;;5015239;28;20462;-58
2020/12/12 09:26:07;;;;;;;25.70;14.30;;;18.30;52.60;;;;;;5015627;28;20030;-58
2020/12/12 09:28:33;;;;;;;27.05;14.60;;;18.40;52.30;;;;;;5015392;28;20040;-57
2020/12/12 09:30:58;;;;;;;31.25;14.13;;;18.40;52.40;;;;;;5015276;28;20534;-58
2020/12/12 09:33:24;;;;;;;26.45;12.45;;;18.50;52.30;;;;;;5015246;28;20118;-58
2020/12/12 09:35:50;;;;;;;23.35;12.52;;;18.60;52.20;;;;;;5015052;28;20458;-58
2020/12/12 09:38:16;;;;;;;18.92;11.80;;;18.70;52.40;;;;;;5015418;28;20030;-58
2020/12/12 09:40:43;;;;;;;24.58;13.30;;;18.80;52.30;;;;;;5015206;28;20061;-58
2020/12/12 09:43:09;;;;;;;20.48;12.15;;;18.80;52.30;;;;;;5015128;28;20041;-58
2020/12/12 09:45:35;;;;;;;21.05;11.35;;;18.90;52.20;;;;;;5015023;28;20497;-58
2020/12/12 09:48:01;;;;;;;22.15;11.65;;;19.00;52.10;;;;;;5014728;28;20029;-58
2020/12/12 09:50:36;;;;;;;23.80;11.65;;;19.10;52.00;;;;;;5014328;28;20462;-58
2020/12/12 09:53:06;;;;;;;21.70;11.02;;;19.00;52.10;;;;;;5014938;28;20450;-58
2020/12/12 09:55:34;;;;;;;17.45;9.85;;;19.10;52.00;;;;;;5015099;28;20040;-58
2020/12/12 09:58:00;;;;;;;18.85;10.35;;;19.10;52.10;;;;;;5014879;28;20034;-59
2020/12/12 10:00:26;;;;;;;18.85;10.60;;;19.10;52.10;;;;;;5014535;28;20064;-58
2020/12/12 10:02:52;;;;;;;18.40;9.85;;;19.10;52.20;;;;;;5014769;28;20026;-58
2020/12/12 10:05:18;;;;;;;24.95;11.52;;;19.10;52.30;;;;;;5014753;28;20022;-58
2020/12/12 10:07:43;;;;;;;15.60;9.05;;;19.00;52.50;;;;;;5014725;28;20451;-58
2020/12/12 10:10:09;;;;;;;16.70;10.43;;;19.00;52.60;;;;;;5014760;28;20054;-59
2020/12/12 10:12:35;;;;;;;19.30;11.90;;;18.90;52.80;;;;;;5014613;28;20041;-58
2020/12/12 10:15:01;;;;;;;16.25;10.20;;;18.90;53.00;;;;;;5014558;28;20501;-58
2020/12/12 10:17:29;;;;;;;17.60;9.52;;;18.90;53.50;;;;;;5014668;28;20053;-58
2020/12/12 10:19:55;;;;;;;19.35;9.27;;;18.80;53.60;;;;;;5014501;28;20050;-58
2020/12/12 10:22:21;;;;;;;15.23;9.65;;;18.90;53.40;;;;;;5014421;28;20030;-58
2020/12/12 10:24:46;;;;;;;19.30;9.48;;;18.90;53.50;;;;;;5014479;28;20032;-58
2020/12/12 10:27:13;;;;;;;18.25;9.35;;;19.00;53.50;;;;;;5014352;28;20033;-58
2020/12/12 10:29:39;;;;;;;16.17;9.38;;;18.90;53.40;;;;;;5014288;28;20064;-58
2020/12/12 10:32:04;;;;;;;15.23;9.30;;;18.90;53.40;;;;;;5014242;28;20066;-58
2020/12/12 10:34:30;;;;;;;17.08;8.55;;;18.80;53.60;;;;;;5014175;28;20068;-58
2020/12/12 10:36:55;;;;;;;18.92;9.05;;;18.70;53.80;;;;;;5014029;28;20497;-58
2020/12/12 10:39:28;;;;;;;13.52;8.68;;;18.70;54.00;;;;;;5014063;28;20109;-59
2020/12/12 10:41:53;;;;;;;11.48;7.20;;;18.70;54.10;;;;;;5014169;28;20529;-54
2020/12/12 10:44:19;;;;;;;16.80;8.73;;;18.50;54.40;;;;;;5013996;28;20101;-60
2020/12/12 10:46:45;;;;;;;15.35;7.95;;;18.40;54.10;;;;;;5013954;28;20029;-58
2020/12/12 10:49:10;;;;;;;18.23;9.85;;;18.30;51.90;;;;;;5014017;28;20029;-59
2020/12/12 10:51:44;;;;;;;19.80;8.25;;;18.20;51.80;;;;;;5013419;28;20436;-57
2020/12/12 10:54:10;;;;;;;70.20;39.08;;;18.20;51.60;;;;;;5013837;28;20154;-58
2020/12/12 10:56:35;;;;;;;90.38;53.25;;;18.20;51.90;;;;;;5014100;28;20504;-59
2020/12/12 10:59:01;;;;;;;131.60;72.03;;;18.40;52.20;;;;;;5008363;28;20030;-60
2020/12/12 11:01:27;;;;;;;111.20;64.00;;;18.50;52.30;;;;;;5013284;28;20490;-59
2020/12/12 11:03:52;;;;;;;147.57;78.22;;;18.60;52.50;;;;;;5013953;28;20025;-53
2020/12/12 11:06:18;;;;;;;140.10;77.20;;;18.60;52.60;;;;;;5013649;28;20153;-55
2020/12/12 11:08:43;;;;;;;124.40;70.03;;;18.60;52.80;;;;;;5013805;28;20029;-49
2020/12/12 11:11:09;;;;;;;100.00;56.97;;;18.60;53.30;;;;;;5013678;28;20022;-56
2020/12/12 11:13:34;;;;;;;90.43;51.55;;;18.70;52.20;;;;;;5013502;28;20393;-57
2020/12/12 11:16:00;;;;;;;84.18;49.90;;;18.70;52.00;;;;;;4995761;28;20467;-56
2020/12/12 11:18:26;;;;;;;88.28;48.72;;;18.80;52.10;;;;;;5013522;28;20056;-56
2020/12/12 11:20:51;;;;;;;75.82;40.97;;;18.80;52.40;;;;;;5013604;28;20030;-57
2020/12/12 11:23:19;;;;;;;73.28;41.00;;;18.90;51.50;;;;;;5012541;28;20037;-58
2020/12/12 11:25:45;;;;;;;72.55;38.55;;;18.90;51.70;;;;;;5011851;28;20430;-57
2020/12/12 11:28:10;;;;;;;71.93;38.20;;;18.80;52.20;;;;;;5013030;28;20045;-58
2020/12/12 11:30:36;;;;;;;65.35;37.38;;;18.80;52.60;;;;;;5013281;28;20026;-59
2020/12/12 11:33:04;;;;;;;68.05;35.70;;;18.70;53.00;;;;;;5021566;28;20053;-59
2020/12/12 11:44:13;;;;;;;58.97;32.30;;;18.50;54.00;;;;;;5018866;28;20053;-58
2020/12/12 11:46:38;;;;;;;169.75;105.45;;;18.50;54.20;;;;;;4999164;28;20030;-60
2020/12/12 11:49:07;;;;;;;137.05;85.30;;;18.50;54.60;;;;;;5013387;28;20056;-59
2020/12/12 11:51:37;;;;;;;149.20;89.30;;;18.60;54.80;;;;;;5013543;28;20026;-59
2020/12/12 11:54:03;;;;;;;138.52;81.53;;;18.60;54.60;;;;;;5018443;28;20516;-60
2020/12/12 11:56:29;;;;;;;311.73;163.55;;;18.70;54.40;;;;;;5020701;28;20028;-60
2020/12/12 11:58:55;;;;;;;449.60;247.48;;;18.70;54.40;;;;;;5019677;28;20395;-60
2020/12/12 12:01:22;;;;;;;427.17;239.93;;;18.70;54.60;;;;;;5017930;28;20478;-55
2020/12/12 12:03:48;;;;;;;336.38;186.63;;;18.80;54.90;;;;;;5020635;28;20022;-59
2020/12/12 12:06:14;;;;;;;307.70;167.35;;;18.80;54.30;;;;;;5013039;28;20101;-59
2020/12/12 12:13:36;;;;;;;170.10;90.35;;;18.50;52.20;;;;;;5015962;28;20385;-58
2020/12/12 12:16:03;;;;;;;124.85;70.28;;;18.30;51.50;;;;;;5016499;28;20022;-59
2020/12/12 12:18:29;;;;;;;131.00;69.32;;;18.20;50.30;;;;;;5016284;28;20445;-58
2020/12/12 12:21:01;;;;;;;132.02;72.15;;;18.20;51.20;;;;;;5016249;28;20211;-53
2020/12/12 12:23:27;;;;;;;137.35;74.70;;;18.20;51.80;;;;;;5016054;28;20025;-54
2020/12/12 12:25:54;;;;;;;138.43;73.63;;;18.30;52.30;;;;;;5015560;28;20028;-55
2020/12/12 12:28:21;;;;;;;142.32;72.97;;;18.30;52.60;;;;;;5015689;28;20030;-59
2020/12/12 12:30:47;;;;;;;138.38;75.18;;;18.30;53.90;;;;;;5018062;28;20045;-59
2020/12/12 12:33:12;;;;;;;177.68;93.38;;;18.40;53.90;;;;;;5020569;28;20041;-58
2020/12/12 12:35:38;;;;;;;241.40;133.27;;;18.50;53.60;;;;;;5022870;28;20369;-58
2020/12/12 12:38:04;;;;;;;225.70;121.03;;;18.70;53.70;;;;;;5023519;28;20052;-58